createdAt,value
2023-07-25T00:01:17.156Z,18.99
2023-07-25T00:03:49.234Z,18.94
2023-07-25T00:06:18.928Z,18.88
2023-07-25T00:08:48.862Z,18.83
2023-07-25T00:11:17.425Z,18.80
2023-07-25T00:13:45.815Z,18.76
2023-07-25T00:16:14.124Z,18.72
2023-07-25T00:18:42.485Z,18.68
2023-07-25T00:21:10.873Z,18.64
2023-07-25T00:23:39.159Z,18.61
2023-07-25T00:26:07.459Z,18.57
2023-07-25T00:28:35.684Z,18.53
2023-07-25T00:31:08.762Z,18.49
2023-07-25T00:33:37.165Z,18.46
2023-07-25T00:36:05.627Z,18.42
2023-07-25T00:38:33.852Z,18.38
2023-07-25T00:41:02.113Z,18.31
2023-07-25T00:43:30.480Z,18.26
2023-07-25T00:45:58.743Z,18.22
2023-07-25T00:48:27.090Z,18.17
2023-07-25T00:50:55.953Z,18.12
2023-07-25T00:53:26.826Z,18.08
2023-07-25T00:55:55.257Z,18.06
2023-07-25T00:58:23.549Z,18.03
2023-07-25T01:00:51.728Z,18.01
2023-07-25T01:03:20.152Z,17.97
2023-07-25T01:05:51.479Z,17.94
2023-07-25T01:08:19.698Z,17.94
2023-07-25T01:10:48.030Z,17.93
2023-07-25T01:13:16.328Z,17.92
2023-07-25T01:15:45.791Z,17.89
2023-07-25T01:18:15.464Z,17.90
2023-07-25T01:20:44.687Z,17.89
2023-07-25T01:23:14.980Z,17.89
2023-07-25T01:25:47.461Z,17.89
2023-07-25T01:28:15.684Z,17.88
2023-07-25T01:30:43.977Z,17.88
2023-07-25T01:33:12.175Z,17.87
2023-07-25T01:35:40.470Z,17.87
2023-07-25T01:38:08.800Z,17.87
2023-07-25T01:40:40.840Z,17.86
2023-07-25T01:43:10.380Z,17.86
2023-07-25T01:45:38.659Z,17.85
2023-07-25T01:48:06.905Z,17.85
2023-07-25T01:50:35.190Z,17.84
2023-07-25T01:53:03.422Z,17.82
2023-07-25T01:55:31.685Z,17.80
2023-07-25T01:57:59.933Z,17.79
2023-07-25T02:00:28.275Z,17.78
2023-07-25T02:02:56.554Z,17.76
2023-07-25T02:05:24.937Z,17.75
2023-07-25T02:07:53.305Z,17.75
2023-07-25T02:10:21.580Z,17.77
2023-07-25T02:12:49.956Z,17.77
2023-07-25T02:15:18.630Z,17.78
2023-07-25T02:17:46.911Z,17.79
2023-07-25T02:20:15.469Z,17.80
2023-07-25T02:22:43.658Z,17.82
2023-07-25T02:25:11.994Z,17.83
2023-07-25T02:27:40.600Z,17.85
2023-07-25T02:30:09.034Z,17.85
2023-07-25T02:32:37.335Z,17.86
2023-07-25T02:35:06.126Z,17.86
2023-07-25T02:37:34.357Z,17.87
2023-07-25T02:40:03.652Z,17.88
2023-07-25T02:42:31.844Z,17.88
2023-07-25T02:45:00.356Z,17.89
2023-07-25T02:47:28.563Z,17.91
2023-07-25T02:49:57.639Z,17.93
2023-07-25T02:52:25.809Z,17.93
2023-07-25T02:54:54.044Z,17.94
2023-07-25T02:57:22.450Z,17.95
2023-07-25T02:59:50.895Z,17.97
2023-07-25T03:02:19.160Z,17.97
2023-07-25T03:04:47.460Z,17.96
2023-07-25T03:07:15.710Z,17.96
2023-07-25T03:09:44.710Z,17.96
2023-07-25T03:12:13.002Z,17.97
2023-07-25T03:14:41.163Z,17.97
2023-07-25T03:17:09.514Z,17.94
2023-07-25T03:19:37.709Z,17.92
2023-07-25T03:22:06.188Z,17.91
2023-07-25T03:24:34.474Z,17.92
2023-07-25T03:27:02.772Z,17.88
2023-07-25T03:29:30.947Z,17.86
2023-07-25T03:31:59.141Z,17.82
2023-07-25T03:34:27.444Z,17.79
2023-07-25T03:36:56.056Z,17.79
2023-07-25T03:39:24.275Z,17.79
2023-07-25T03:41:52.652Z,17.78
2023-07-25T03:44:21.412Z,17.79
2023-07-25T03:46:49.583Z,17.80
2023-07-25T03:49:17.918Z,17.82
2023-07-25T03:51:46.249Z,17.86
2023-07-25T03:54:40.472Z,17.99
2023-07-25T03:57:08.797Z,18.07
2023-07-25T03:59:37.051Z,18.11
2023-07-25T04:02:05.736Z,18.19
2023-07-25T04:04:34.094Z,18.21
2023-07-25T04:07:02.381Z,18.31
2023-07-25T04:09:30.700Z,18.42
2023-07-25T04:11:59.063Z,18.52
2023-07-25T04:14:47.214Z,18.65
2023-07-25T04:17:15.648Z,18.76
2023-07-25T04:19:43.858Z,18.89
2023-07-25T04:22:12.837Z,19.02
2023-07-25T04:24:41.394Z,19.16
2023-07-25T04:27:09.647Z,19.29
2023-07-25T04:29:37.859Z,19.43
2023-07-25T04:32:06.679Z,19.57
2023-07-25T04:34:35.086Z,19.73
2023-07-25T04:37:03.451Z,19.88
2023-07-25T04:39:31.663Z,20.00
2023-07-25T04:41:59.859Z,20.12
2023-07-25T04:44:28.271Z,20.21
2023-07-25T04:46:56.625Z,20.28
2023-07-25T04:49:26.518Z,20.34
2023-07-25T04:51:54.773Z,20.41
2023-07-25T04:54:23.075Z,20.49
2023-07-25T04:56:51.317Z,20.60
2023-07-25T04:59:20.430Z,20.72
2023-07-25T05:01:49.006Z,20.81
2023-07-25T05:04:17.170Z,20.86
2023-07-25T05:06:45.408Z,20.93
2023-07-25T05:09:13.932Z,20.99
2023-07-25T05:11:42.068Z,21.01
2023-07-25T05:14:11.106Z,21.02
2023-07-25T05:16:39.270Z,21.04
2023-07-25T05:19:07.539Z,21.09
2023-07-25T05:21:35.945Z,21.20
2023-07-25T05:24:04.305Z,21.36
2023-07-25T05:26:32.635Z,21.51
2023-07-25T05:29:00.923Z,21.61
2023-07-25T05:31:29.481Z,21.70
2023-07-25T05:33:58.151Z,21.78
2023-07-25T05:36:29.071Z,21.86
2023-07-25T05:38:57.384Z,21.92
2023-07-25T05:41:25.690Z,22.00
2023-07-25T05:43:53.959Z,22.06
2023-07-25T05:46:22.304Z,22.09
2023-07-25T05:48:50.689Z,22.13
2023-07-25T05:51:19.062Z,22.19
2023-07-25T05:53:49.144Z,22.26
2023-07-25T05:56:17.659Z,22.33
2023-07-25T05:58:46.397Z,22.40
2023-07-25T06:01:14.934Z,22.49
2023-07-25T06:03:46.148Z,22.59
2023-07-25T06:06:14.715Z,22.70
2023-07-25T06:08:45.584Z,22.80
2023-07-25T06:11:13.675Z,22.90
2023-07-25T06:13:42.099Z,22.98
2023-07-25T06:16:10.667Z,23.05
2023-07-25T06:18:38.928Z,22.98
2023-07-25T06:21:07.464Z,23.01
2023-07-25T06:23:35.930Z,23.07
2023-07-25T06:26:04.197Z,23.13
2023-07-25T06:28:32.863Z,23.18
2023-07-25T06:31:01.283Z,23.28
2023-07-25T06:33:30.304Z,23.36
2023-07-25T06:35:58.875Z,23.41
2023-07-25T06:38:29.562Z,23.46
2023-07-25T06:41:04.404Z,23.50
2023-07-25T06:43:33.494Z,23.57
2023-07-25T06:46:04.880Z,23.61
2023-07-25T06:51:31.181Z,23.54
2023-07-25T06:54:02.066Z,23.62
2023-07-25T06:56:33.376Z,23.73
2023-07-25T06:59:01.792Z,23.84
2023-07-25T07:01:30.644Z,23.90
2023-07-25T07:04:01.110Z,23.94
2023-07-25T07:06:30.598Z,23.99
2023-07-25T07:09:00.769Z,24.09
2023-07-25T07:11:31.808Z,24.24
2023-07-25T07:14:00.854Z,24.41
2023-07-25T07:16:29.357Z,24.60
2023-07-25T07:19:00.680Z,24.77
2023-07-25T07:21:29.526Z,24.86
2023-07-25T07:23:59.181Z,24.88
2023-07-25T07:26:27.725Z,24.99
2023-07-25T07:29:01.132Z,25.02
2023-07-25T07:31:30.057Z,25.01
2023-07-25T07:34:14.690Z,25.01
2023-07-25T07:36:44.400Z,25.01
2023-07-25T07:39:12.957Z,25.06
2023-07-25T07:41:41.146Z,25.19
2023-07-25T07:44:09.450Z,25.55
2023-07-25T07:46:37.893Z,25.92
2023-07-25T07:49:07.019Z,26.12
2023-07-25T07:51:35.697Z,26.28
2023-07-25T07:54:04.021Z,26.56
2023-07-25T07:56:32.515Z,26.87
2023-07-25T07:59:02.716Z,27.14
2023-07-25T08:01:31.300Z,27.44
2023-07-25T08:04:00.278Z,27.76
2023-07-25T08:06:29.603Z,28.03
2023-07-25T08:08:57.921Z,28.20
2023-07-25T08:11:26.075Z,28.18
2023-07-25T08:13:54.372Z,28.09
2023-07-25T08:16:23.532Z,28.10
2023-07-25T08:18:52.112Z,28.24
2023-07-25T08:21:20.208Z,28.24
2023-07-25T08:23:48.563Z,28.11
2023-07-25T08:26:41.549Z,27.98
2023-07-25T08:29:09.926Z,27.88
2023-07-25T08:31:38.209Z,27.84
2023-07-25T08:34:06.602Z,27.88
2023-07-25T08:36:34.958Z,27.87
2023-07-25T08:39:03.051Z,27.80
2023-07-25T08:41:36.926Z,27.80
2023-07-25T08:44:06.239Z,27.94
2023-07-25T08:46:36.466Z,28.00
2023-07-25T08:49:04.807Z,28.02
2023-07-25T08:52:04.461Z,27.98
2023-07-25T08:54:38.287Z,27.73
2023-07-25T08:57:07.640Z,27.67
2023-07-25T08:59:37.346Z,27.72
2023-07-25T09:02:07.479Z,27.87
2023-07-25T09:04:36.275Z,28.07
2023-07-25T09:07:04.988Z,28.29
2023-07-25T09:09:33.187Z,28.47
2023-07-25T09:12:01.640Z,28.63
2023-07-25T09:14:29.954Z,28.91
2023-07-25T09:16:58.315Z,29.18
2023-07-25T09:19:26.913Z,29.40
2023-07-25T09:21:55.940Z,29.60
2023-07-25T09:24:24.321Z,29.67
2023-07-25T09:26:53.280Z,29.69
2023-07-25T09:29:28.195Z,29.64
2023-07-25T09:31:56.397Z,29.56
2023-07-25T09:34:26.596Z,29.57
2023-07-25T09:36:54.811Z,29.62
2023-07-25T09:39:23.091Z,29.67
2023-07-25T09:41:52.252Z,29.70
2023-07-25T09:44:21.559Z,29.77
2023-07-25T09:46:55.270Z,29.90
2023-07-25T09:49:26.442Z,29.91
2023-07-25T09:52:04.605Z,29.95
2023-07-25T09:54:32.884Z,30.08
2023-07-25T09:57:01.218Z,30.10
2023-07-25T09:59:30.855Z,29.94
2023-07-25T10:01:59.501Z,29.80
2023-07-25T10:04:28.762Z,29.63
2023-07-25T10:07:00.822Z,29.63
2023-07-25T10:09:31.753Z,29.69
2023-07-25T10:12:00.229Z,29.71
2023-07-25T10:14:28.497Z,29.71
2023-07-25T10:17:00.228Z,29.75
2023-07-25T10:19:28.816Z,29.79
2023-07-25T10:21:57.132Z,29.78
2023-07-25T10:24:25.991Z,29.78
2023-07-25T10:26:59.334Z,29.84
2023-07-25T10:29:43.598Z,29.83
2023-07-25T10:32:17.212Z,29.76
2023-07-25T10:34:53.857Z,29.69
2023-07-25T10:37:29.602Z,29.63
2023-07-25T10:40:09.977Z,29.55
2023-07-25T10:43:04.394Z,29.51
2023-07-25T10:45:35.498Z,29.48
2023-07-25T10:48:33.119Z,29.43
2023-07-25T10:51:06.337Z,29.30
2023-07-25T10:53:35.882Z,29.10
2023-07-25T10:56:07.773Z,28.87
2023-07-25T10:58:40.180Z,28.71
2023-07-25T11:01:08.751Z,28.54
2023-07-25T11:03:38.939Z,28.35
2023-07-25T11:06:10.332Z,28.27
2023-07-25T11:08:43.529Z,28.21
2023-07-25T11:11:14.320Z,28.16
2023-07-25T11:13:43.496Z,28.13
2023-07-25T11:16:15.415Z,28.09
2023-07-25T11:18:52.440Z,28.06
2023-07-25T11:21:21.629Z,28.03
2023-07-25T11:24:07.768Z,28.04
2023-07-25T11:26:38.698Z,28.03
2023-07-25T11:29:14.760Z,27.96
2023-07-25T11:31:50.679Z,27.90
2023-07-25T11:34:21.884Z,27.86
2023-07-25T11:36:53.104Z,27.79
2023-07-25T11:39:23.435Z,27.67
2023-07-25T11:41:52.343Z,27.51
2023-07-25T11:45:12.486Z,27.36
2023-07-25T11:47:48.521Z,27.17
2023-07-25T11:50:29.486Z,27.04
2023-07-25T11:53:01.797Z,26.93
2023-07-25T11:55:31.253Z,26.94
2023-07-25T11:58:03.884Z,26.97
2023-07-25T12:00:43.932Z,26.96
2023-07-25T12:03:20.470Z,26.97
2023-07-25T12:06:08.145Z,26.99
2023-07-25T12:08:41.265Z,26.99
2023-07-25T12:11:18.633Z,26.98
2023-07-25T12:13:47.934Z,26.92
2023-07-25T12:16:35.926Z,26.81
2023-07-25T12:19:17.968Z,26.70
2023-07-25T12:21:47.303Z,26.58
2023-07-25T12:24:17.525Z,26.50
2023-07-25T12:26:57.823Z,26.45
2023-07-25T12:29:29.281Z,26.44
2023-07-25T12:31:58.145Z,26.44
2023-07-25T12:34:26.636Z,26.38
2023-07-25T12:36:55.055Z,26.35
2023-07-25T12:39:31.951Z,26.29
2023-07-25T12:42:00.384Z,26.23
2023-07-25T12:44:28.643Z,26.17
2023-07-25T12:46:56.869Z,26.09
2023-07-25T12:49:25.286Z,26.00
2023-07-25T12:51:53.904Z,25.85
2023-07-25T12:54:22.598Z,25.73
2023-07-25T12:57:06.906Z,25.59
2023-07-25T12:59:38.114Z,25.45
2023-07-25T13:02:07.482Z,25.29
2023-07-25T13:04:38.561Z,25.09
2023-07-25T13:07:07.026Z,24.88
2023-07-25T13:09:37.676Z,24.68
2023-07-25T13:12:08.837Z,24.44
2023-07-25T13:14:40.431Z,24.19
2023-07-25T13:17:08.731Z,23.97
2023-07-25T13:19:37.000Z,23.78
2023-07-25T13:22:05.627Z,23.66
2023-07-25T13:24:36.655Z,23.55
2023-07-25T13:27:05.251Z,23.43
2023-07-25T13:29:33.738Z,23.29
2023-07-25T13:32:01.990Z,23.14
2023-07-25T13:34:30.284Z,23.02
2023-07-25T13:36:58.572Z,22.88
2023-07-25T13:39:28.861Z,22.78
2023-07-25T13:41:57.133Z,22.72
2023-07-25T13:44:25.585Z,22.66
2023-07-25T13:46:53.820Z,22.53
2023-07-25T13:49:22.215Z,22.40
2023-07-25T13:51:50.696Z,22.35
2023-07-25T13:54:20.573Z,22.33
2023-07-25T13:56:49.609Z,22.31
2023-07-25T13:59:17.991Z,22.31
2023-07-25T14:01:46.579Z,22.30
2023-07-25T14:04:17.313Z,22.29
2023-07-25T14:06:48.314Z,22.27
2023-07-25T14:09:21.145Z,22.24
2023-07-25T14:11:50.188Z,22.24
2023-07-25T14:14:29.487Z,22.23
2023-07-25T14:17:02.465Z,22.13
2023-07-25T14:19:31.625Z,21.95
2023-07-25T14:22:01.818Z,21.79
2023-07-25T14:24:31.147Z,21.60
2023-07-25T14:26:59.696Z,21.39
2023-07-25T14:29:30.666Z,21.20
2023-07-25T14:31:59.720Z,21.07
2023-07-25T14:34:28.353Z,20.99
2023-07-25T14:36:56.647Z,20.94
2023-07-25T14:39:25.026Z,20.88
2023-07-25T14:41:54.387Z,20.87
2023-07-25T14:44:26.946Z,20.89
2023-07-25T14:46:55.471Z,20.90
2023-07-25T14:49:23.793Z,20.90
2023-07-25T14:51:53.674Z,20.92
2023-07-25T14:54:21.999Z,20.92
2023-07-25T14:56:50.259Z,20.97
2023-07-25T14:59:18.603Z,21.00
2023-07-25T15:01:48.165Z,21.04
2023-07-25T15:04:16.608Z,21.08
2023-07-25T15:06:48.667Z,21.09
2023-07-25T15:09:17.045Z,21.08
2023-07-25T15:11:51.642Z,21.05
2023-07-25T15:14:23.057Z,21.02
2023-07-25T15:16:56.813Z,21.00
2023-07-25T15:19:27.428Z,20.95
2023-07-25T15:21:59.147Z,20.88
2023-07-25T15:24:32.628Z,20.85
2023-07-25T15:27:05.093Z,20.84
2023-07-25T15:29:36.355Z,20.78
2023-07-25T15:32:05.092Z,20.74
2023-07-25T15:34:33.441Z,20.71
2023-07-25T15:37:01.781Z,20.73
2023-07-25T15:39:29.929Z,20.72
2023-07-25T15:41:59.808Z,20.65
2023-07-25T15:44:30.328Z,20.55
2023-07-25T15:47:08.436Z,20.46
2023-07-25T15:49:38.980Z,20.41
2023-07-25T15:52:10.392Z,20.44
2023-07-25T15:54:40.927Z,20.39
2023-07-25T15:57:11.861Z,20.35
2023-07-25T15:59:42.455Z,20.35
2023-07-25T16:02:13.897Z,20.37
2023-07-25T16:04:45.328Z,20.35
2023-07-25T16:07:14.245Z,20.31
2023-07-25T16:09:50.143Z,20.25
2023-07-25T16:12:23.846Z,20.22
2023-07-25T16:15:05.165Z,20.18
2023-07-25T16:17:36.098Z,20.13
2023-07-25T16:20:28.583Z,20.05
2023-07-25T16:22:58.759Z,19.93
2023-07-25T16:25:31.212Z,19.84
2023-07-25T16:28:02.030Z,19.79
2023-07-25T16:30:31.638Z,19.72
2023-07-25T16:32:59.881Z,19.67
2023-07-25T16:35:30.133Z,19.64
2023-07-25T16:38:03.344Z,19.60
2023-07-25T16:40:36.913Z,19.59
2023-07-25T16:43:16.915Z,19.56
2023-07-25T16:45:50.818Z,19.53
2023-07-25T16:48:21.293Z,19.50
2023-07-25T16:50:49.890Z,19.46
2023-07-25T16:53:20.559Z,19.43
2023-07-25T16:55:48.813Z,19.43
2023-07-25T16:58:17.124Z,19.42
2023-07-25T17:00:52.518Z,19.40
2023-07-25T17:03:21.190Z,19.37
2023-07-25T17:05:49.646Z,19.35
2023-07-25T17:08:20.606Z,19.31
2023-07-25T17:10:49.146Z,19.22
2023-07-25T17:13:20.967Z,19.16
2023-07-25T17:15:49.656Z,19.07
2023-07-25T17:18:18.037Z,18.99
2023-07-25T17:20:46.702Z,18.96
2023-07-25T17:23:23.028Z,18.90
2023-07-25T17:25:57.664Z,18.86
2023-07-25T17:28:26.675Z,18.80
2023-07-25T17:30:58.958Z,18.76
2023-07-25T17:33:27.703Z,18.71
2023-07-25T17:35:56.125Z,18.69
2023-07-25T17:38:34.008Z,18.64
2023-07-25T17:41:25.550Z,18.62
2023-07-25T17:48:10.450Z,18.50
2023-07-25T17:51:51.226Z,18.46
2023-07-25T17:54:39.497Z,18.44
2023-07-25T17:57:09.618Z,18.43
2023-07-25T17:59:38.056Z,18.41
2023-07-25T18:02:08.394Z,18.40
2023-07-25T18:04:36.864Z,18.39
2023-07-25T18:07:05.443Z,18.39
2023-07-25T18:09:33.787Z,18.40
2023-07-25T18:12:02.487Z,18.42
2023-07-25T18:14:33.896Z,18.41
2023-07-25T18:17:02.234Z,18.44
2023-07-25T18:19:30.673Z,18.43
2023-07-25T18:22:00.784Z,18.44
2023-07-25T18:24:29.218Z,18.45
2023-07-25T18:26:57.745Z,18.45
2023-07-25T18:29:42.587Z,18.44
2023-07-25T18:32:11.143Z,18.44
2023-07-25T18:34:40.926Z,18.42
2023-07-25T18:37:14.396Z,18.40
2023-07-25T18:40:08.375Z,18.39
2023-07-25T18:42:38.737Z,18.37
2023-07-25T18:47:53.532Z,18.35
2023-07-25T18:50:25.280Z,18.35
2023-07-25T18:52:53.627Z,18.32
2023-07-25T18:55:26.097Z,18.31
2023-07-25T18:57:56.645Z,18.31
2023-07-25T19:00:25.686Z,18.31
2023-07-25T19:02:55.796Z,18.29
2023-07-25T19:05:24.288Z,18.27
2023-07-25T19:07:52.607Z,18.24
2023-07-25T19:10:20.930Z,18.26
2023-07-25T19:12:49.235Z,18.26
2023-07-25T19:15:18.636Z,18.24
2023-07-25T19:17:47.648Z,18.24
2023-07-25T19:20:15.884Z,18.24
2023-07-25T19:22:44.262Z,18.24
2023-07-25T19:25:12.505Z,18.24
2023-07-25T19:27:41.620Z,18.24
2023-07-25T19:30:10.544Z,18.22
2023-07-25T19:32:38.917Z,18.21
2023-07-25T19:35:10.311Z,18.23
2023-07-25T19:37:42.906Z,18.22
2023-07-25T19:40:11.516Z,18.22
2023-07-25T19:42:40.562Z,18.22
2023-07-25T19:45:09.452Z,18.20
2023-07-25T19:47:37.849Z,18.20
2023-07-25T19:50:06.997Z,18.20
2023-07-25T19:52:35.379Z,18.19
2023-07-25T19:55:03.707Z,18.17
2023-07-25T19:57:31.965Z,18.16
2023-07-25T20:00:00.313Z,18.13
2023-07-25T20:02:28.862Z,18.08
2023-07-25T20:04:57.165Z,18.04
2023-07-25T20:07:25.554Z,18.02
2023-07-25T20:09:54.026Z,17.99
2023-07-25T20:12:22.266Z,17.95
2023-07-25T20:14:51.930Z,17.92
2023-07-25T20:17:20.225Z,17.88
2023-07-25T20:19:48.899Z,17.84
2023-07-25T20:22:17.200Z,17.76
2023-07-25T20:24:45.520Z,17.71
2023-07-25T20:27:16.483Z,17.67
2023-07-25T20:29:44.802Z,17.63
2023-07-25T20:32:13.167Z,17.56
2023-07-25T20:34:41.781Z,17.53
2023-07-25T20:37:10.217Z,17.49
2023-07-25T20:39:38.569Z,17.45
2023-07-25T20:42:07.198Z,17.38
2023-07-25T20:44:35.894Z,17.33
2023-07-25T20:47:04.451Z,17.29
2023-07-25T20:49:32.701Z,17.26
2023-07-25T20:52:00.995Z,17.23
2023-07-25T20:54:29.292Z,17.19
2023-07-25T20:56:57.490Z,17.16
2023-07-25T20:59:25.761Z,17.12
2023-07-25T21:01:54.152Z,17.08
2023-07-25T21:04:22.479Z,17.05
2023-07-25T21:06:50.804Z,17.00
2023-07-25T21:09:19.334Z,16.96
2023-07-25T21:11:47.716Z,16.92
2023-07-25T21:14:16.076Z,16.87
2023-07-25T21:16:44.532Z,16.81
2023-07-25T21:19:13.100Z,16.73
2023-07-25T21:21:41.465Z,16.69
2023-07-25T21:24:10.018Z,16.67
2023-07-25T21:26:38.404Z,16.64
2023-07-25T21:29:06.687Z,16.61
2023-07-25T21:31:35.042Z,16.57
2023-07-25T21:34:04.361Z,16.55
2023-07-25T21:36:33.063Z,16.54
2023-07-25T21:39:02.128Z,16.48
2023-07-25T21:41:30.342Z,16.42
2023-07-25T21:43:58.710Z,16.38
2023-07-25T21:46:28.429Z,16.35
2023-07-25T21:48:57.699Z,16.33
2023-07-25T21:51:26.026Z,16.28
2023-07-25T21:53:54.245Z,16.24
2023-07-25T21:56:22.556Z,16.22
2023-07-25T21:58:50.829Z,16.20
2023-07-25T22:01:19.168Z,16.15
2023-07-25T22:08:22.051Z,16.06
2023-07-25T22:10:51.228Z,16.03
2023-07-25T22:13:20.272Z,15.98
2023-07-25T22:15:48.852Z,15.94
2023-07-25T22:18:20.477Z,15.88
2023-07-25T22:21:15.185Z,15.85
2023-07-25T22:23:43.416Z,15.82
2023-07-25T22:26:11.870Z,15.79
2023-07-25T22:28:40.135Z,15.75
2023-07-25T22:31:08.387Z,15.72
2023-07-25T22:33:36.709Z,15.67
2023-07-25T22:36:05.085Z,15.64
2023-07-25T22:38:33.284Z,15.63
2023-07-25T22:41:01.660Z,15.59
2023-07-25T22:43:29.863Z,15.56
2023-07-25T22:45:58.244Z,15.53
2023-07-25T22:48:27.205Z,15.50
2023-07-25T22:51:21.307Z,15.47
2023-07-25T22:53:49.691Z,15.44
2023-07-25T22:56:18.059Z,15.41
2023-07-25T22:58:46.416Z,15.38
2023-07-25T23:01:14.784Z,15.36
2023-07-25T23:03:43.203Z,15.33
2023-07-25T23:06:11.497Z,15.32
2023-07-25T23:08:39.877Z,15.31
2023-07-25T23:11:08.189Z,15.26
2023-07-25T23:13:36.522Z,15.23
2023-07-25T23:16:05.431Z,15.20
2023-07-25T23:18:33.669Z,15.20
2023-07-25T23:21:02.436Z,15.18
2023-07-25T23:23:30.756Z,15.17
2023-07-25T23:25:59.062Z,15.16
2023-07-25T23:28:27.318Z,15.14
2023-07-25T23:30:55.689Z,15.12
2023-07-25T23:33:24.211Z,15.10
2023-07-25T23:35:52.503Z,15.10
2023-07-25T23:38:20.929Z,15.10
2023-07-25T23:40:49.224Z,15.12
2023-07-25T23:43:17.403Z,15.08
2023-07-25T23:45:45.652Z,15.07
2023-07-25T23:48:13.985Z,15.04
2023-07-25T23:50:42.296Z,15.03
2023-07-25T23:53:10.629Z,15.02
2023-07-25T23:55:38.848Z,15.02
2023-07-25T23:58:07.133Z,15.02
